Time;durP1;ratioP1;P1;durP2;ratioP2;P2;SDS_P1;SDS_P2;PMS_P1;PMS_P2;Temp;Humidity;BMP_temperature;BMP_pressure;BME280_temperature;BME280_humidity;BME280_pressure;Samples;Min_cycle;Max_cycle;Signal;HPM_P1;HPM_P2
2023/03/26 00:00:44;;;;;;;1.95;0.80;;;7.50;99.90;;;;;;5028748;28;20247;-76
2023/03/26 00:03:11;;;;;;;2.65;1.15;;;7.40;99.90;;;;;;5024875;28;20208;-75
2023/03/26 00:05:38;;;;;;;1.58;1.40;;;7.40;99.90;;;;;;5025563;28;20299;-75
2023/03/26 00:08:04;;;;;;;1.80;0.80;;;7.40;99.90;;;;;;5024366;28;20192;-75
2023/03/26 00:10:30;;;;;;;3.63;1.00;;;7.40;99.90;;;;;;5029200;28;20199;-74
2023/03/26 00:12:55;;;;;;;2.13;1.08;;;7.50;99.90;;;;;;5023248;28;20676;-75
2023/03/26 00:15:21;;;;;;;1.83;1.15;;;7.60;99.90;;;;;;5020485;28;20549;-74
2023/03/26 00:17:46;;;;;;;1.92;1.10;;;7.60;99.90;;;;;;5029027;28;20417;-74
2023/03/26 00:20:12;;;;;;;1.83;0.80;;;7.60;99.90;;;;;;5023699;28;20203;-74
2023/03/26 00:22:40;;;;;;;1.17;1.05;;;7.60;99.90;;;;;;5024655;28;20218;-74
2023/03/26 00:25:06;;;;;;;1.13;0.70;;;7.70;99.90;;;;;;5035229;28;20561;-74
2023/03/26 00:27:32;;;;;;;1.40;1.05;;;7.70;99.90;;;;;;5033072;28;20576;-73
2023/03/26 00:29:59;;;;;;;5.13;1.35;;;7.70;99.90;;;;;;5027405;28;20177;-74
2023/03/26 00:32:26;;;;;;;3.10;1.42;;;7.70;99.90;;;;;;5032952;28;20197;-73
2023/03/26 00:34:54;;;;;;;2.47;1.20;;;7.70;99.90;;;;;;5032686;28;20184;-73
2023/03/26 00:37:25;;;;;;;2.15;0.90;;;7.70;99.90;;;;;;5026568;28;21698;-73
2023/03/26 00:39:58;;;;;;;1.25;0.90;;;7.70;99.90;;;;;;5030176;28;20187;-74
2023/03/26 00:42:24;;;;;;;1.40;1.30;;;7.70;99.90;;;;;;5034087;28;20277;-73
2023/03/26 00:44:53;;;;;;;2.03;1.33;;;7.60;99.90;;;;;;5029159;28;20176;-72
2023/03/26 00:47:20;;;;;;;0.68;0.52;;;7.50;99.90;;;;;;5024166;28;20183;-73
2023/03/26 00:49:47;;;;;;;2.55;0.98;;;7.50;99.90;;;;;;5028613;28;20179;-73
2023/03/26 00:52:17;;;;;;;1.95;1.10;;;7.40;99.90;;;;;;5031896;28;20780;-73
2023/03/26 00:54:52;;;;;;;2.10;1.23;;;7.40;99.90;;;;;;5027904;28;20279;-73
2023/03/26 00:57:21;;;;;;;2.15;0.90;;;7.40;99.90;;;;;;5024152;28;20223;-75
2023/03/26 00:59:48;;;;;;;1.20;1.00;;;7.40;99.90;;;;;;5022931;28;20254;-76
2023/03/26 01:02:16;;;;;;;1.30;1.20;;;7.50;99.90;;;;;;5028871;28;20200;-73
2023/03/26 01:04:47;;;;;;;3.53;1.00;;;7.50;99.90;;;;;;5028627;28;20520;-76
2023/03/26 01:07:20;;;;;;;1.00;0.70;;;7.50;99.90;;;;;;5027551;28;20527;-74
2023/03/26 01:09:49;;;;;;;5.38;1.63;;;7.60;99.90;;;;;;5025344;28;20734;-74
2023/03/26 01:12:21;;;;;;;5.15;1.17;;;7.70;99.90;;;;;;5022752;28;20208;-74
2023/03/26 01:14:49;;;;;;;1.98;0.85;;;7.80;99.90;;;;;;5022034;28;20189;-74
2023/03/26 01:17:15;;;;;;;3.28;0.95;;;7.90;99.90;;;;;;5027839;28;20755;-72
2023/03/26 01:19:43;;;;;;;2.95;1.60;;;7.90;99.90;;;;;;5026908;28;20277;-73
2023/03/26 01:22:21;;;;;;;1.17;0.93;;;7.90;99.90;;;;;;5023011;28;20227;-72
2023/03/26 01:24:51;;;;;;;4.22;1.23;;;7.90;99.90;;;;;;5030817;28;20187;-73
2023/03/26 01:27:32;;;;;;;1.48;1.23;;;7.90;99.90;;;;;;5027934;28;20549;-73
2023/03/26 01:30:30;;;;;;;2.17;1.08;;;7.90;99.90;;;;;;5028892;28;20175;-73
2023/03/26 01:33:42;;;;;;;1.58;1.20;;;7.90;99.90;;;;;;5021262;28;20239;-74
2023/03/26 01:36:26;;;;;;;0.68;0.65;;;8.00;99.90;;;;;;5013329;28;20250;-73
2023/03/26 01:39:01;;;;;;;2.75;1.73;;;8.00;99.90;;;;;;5025812;28;20226;-73
2023/03/26 01:41:42;;;;;;;1.10;1.00;;;8.00;99.90;;;;;;5018818;28;20231;-75
2023/03/26 01:44:32;;;;;;;1.38;0.63;;;8.10;99.90;;;;;;5018638;28;20260;-74
2023/03/26 01:46:59;;;;;;;1.65;0.98;;;8.10;99.90;;;;;;5032222;28;20571;-73
2023/03/26 01:49:29;;;;;;;1.10;1.00;;;8.20;99.90;;;;;;5022001;28;21176;-76
2023/03/26 01:51:57;;;;;;;3.28;1.02;;;8.20;99.90;;;;;;5023567;28;20247;-74
2023/03/26 01:54:27;;;;;;;1.90;0.90;;;8.20;99.90;;;;;;5027928;28;20219;-73
2023/03/26 01:56:55;;;;;;;1.75;1.10;;;8.30;99.90;;;;;;5024009;28;20188;-73
2023/03/26 01:59:56;;;;;;;1.58;1.35;;;8.20;99.90;;;;;;5027855;28;20183;-73
2023/03/26 02:02:27;;;;;;;3.70;1.25;;;8.10;99.90;;;;;;5015619;28;20644;-75
2023/03/26 02:05:11;;;;;;;1.95;0.93;;;8.10;99.90;;;;;;5018997;28;20200;-73
2023/03/26 02:07:44;;;;;;;1.38;1.20;;;8.00;99.90;;;;;;5019392;28;20529;-73
2023/03/26 02:10:15;;;;;;;2.60;1.17;;;8.00;99.90;;;;;;5023436;28;20181;-76
2023/03/26 02:12:43;;;;;;;1.50;1.02;;;8.00;99.90;;;;;;5031288;28;20200;-74
2023/03/26 02:15:10;;;;;;;2.65;1.23;;;8.10;99.90;;;;;;5029762;28;20579;-73
2023/03/26 02:17:39;;;;;;;4.85;0.90;;;8.10;99.90;;;;;;5019414;28;20303;-73
2023/03/26 02:20:07;;;;;;;2.30;1.33;;;8.30;99.90;;;;;;5020456;28;20184;-73
2023/03/26 02:22:39;;;;;;;3.95;1.00;;;8.20;99.90;;;;;;5027503;28;20295;-73
2023/03/26 02:25:09;;;;;;;2.22;1.30;;;8.20;99.90;;;;;;5029381;28;20268;-73
2023/03/26 02:27:36;;;;;;;2.30;1.45;;;8.30;99.90;;;;;;5016512;28;20259;-73
2023/03/26 02:30:07;;;;;;;1.55;1.13;;;8.20;99.90;;;;;;5019551;28;20713;-74
2023/03/26 02:32:33;;;;;;;4.97;1.05;;;8.20;99.90;;;;;;5026321;28;20220;-74
2023/03/26 02:35:00;;;;;;;1.48;0.93;;;8.30;99.90;;;;;;5024861;28;20184;-73
2023/03/26 02:37:25;;;;;;;3.53;1.65;;;8.30;99.90;;;;;;5026094;28;20208;-73
2023/03/26 02:39:51;;;;;;;0.80;0.80;;;8.30;99.90;;;;;;5022923;28;20196;-74
2023/03/26 02:42:17;;;;;;;2.45;1.20;;;8.30;99.90;;;;;;5022270;28;20255;-75
2023/03/26 02:44:42;;;;;;;3.45;1.20;;;8.30;99.90;;;;;;5027354;28;20168;-74
2023/03/26 02:47:08;;;;;;;2.50;1.17;;;8.20;99.90;;;;;;5024055;28;20177;-75
2023/03/26 02:49:33;;;;;;;2.33;1.27;;;8.20;99.90;;;;;;5025522;28;20242;-75
2023/03/26 02:51:59;;;;;;;1.17;1.08;;;8.10;99.90;;;;;;5024225;28;20215;-74
2023/03/26 02:54:25;;;;;;;1.98;1.13;;;8.10;99.90;;;;;;5021779;28;20196;-74
2023/03/26 02:56:50;;;;;;;2.42;1.20;;;8.20;99.90;;;;;;5019108;28;20180;-74
2023/03/26 02:59:16;;;;;;;3.00;1.48;;;8.20;99.90;;;;;;5026363;28;20194;-75
2023/03/26 03:01:42;;;;;;;3.30;1.48;;;8.20;99.90;;;;;;5023210;28;20216;-75
2023/03/26 03:04:11;;;;;;;2.17;0.90;;;8.20;99.90;;;;;;5026363;28;20227;-74
2023/03/26 03:06:38;;;;;;;2.63;1.10;;;8.20;99.90;;;;;;5023415;28;20177;-75
2023/03/26 03:09:05;;;;;;;2.50;1.23;;;8.20;99.90;;;;;;5018576;28;20217;-74
2023/03/26 03:11:30;;;;;;;2.80;1.65;;;8.20;99.90;;;;;;5024683;28;20189;-74
2023/03/26 03:13:56;;;;;;;0.95;0.95;;;8.20;99.90;;;;;;5024701;28;20905;-74
2023/03/26 03:16:22;;;;;;;1.25;1.08;;;8.10;99.90;;;;;;5020335;28;20200;-74
2023/03/26 03:18:55;;;;;;;1.77;1.10;;;8.00;99.90;;;;;;5026035;28;20188;-74
2023/03/26 03:21:21;;;;;;;2.78;1.20;;;7.90;99.90;;;;;;5022925;28;20200;-74
2023/03/26 03:23:47;;;;;;;3.53;1.23;;;7.90;99.90;;;;;;5020959;28;20184;-74
2023/03/26 03:26:21;;;;;;;3.25;1.42;;;7.80;99.90;;;;;;5020852;28;20644;-74
2023/03/26 03:28:48;;;;;;;2.22;1.27;;;7.60;99.90;;;;;;5021883;28;20180;-74
2023/03/26 03:31:15;;;;;;;1.75;1.30;;;7.60;99.90;;;;;;5015237;28;20827;-74
2023/03/26 03:33:41;;;;;;;1.75;1.40;;;7.50;99.90;;;;;;5023075;28;20224;-74
2023/03/26 03:36:09;;;;;;;0.98;0.85;;;7.40;99.90;;;;;;5025065;28;20206;-75
2023/03/26 03:38:36;;;;;;;2.03;1.27;;;7.30;99.90;;;;;;5025709;28;20177;-74
2023/03/26 03:41:02;;;;;;;2.92;1.33;;;7.30;99.90;;;;;;5022952;28;20207;-74
2023/03/26 03:43:28;;;;;;;2.40;1.30;;;7.30;99.90;;;;;;5021026;28;20203;-74
2023/03/26 03:45:53;;;;;;;1.10;0.98;;;7.30;99.90;;;;;;5021025;28;20189;-74
2023/03/26 03:48:19;;;;;;;1.00;0.85;;;7.30;99.90;;;;;;5015842;28;20559;-74
2023/03/26 03:50:45;;;;;;;1.60;1.50;;;7.40;99.90;;;;;;5025262;28;20176;-73
2023/03/26 03:53:14;;;;;;;2.40;1.23;;;7.50;99.90;;;;;;5025072;28;20188;-73
2023/03/26 03:55:40;;;;;;;1.67;1.20;;;7.40;99.90;;;;;;5018224;28;20189;-73
2023/03/26 03:58:08;;;;;;;2.38;1.00;;;7.40;99.90;;;;;;5022842;28;20246;-73
2023/03/26 04:00:37;;;;;;;2.80;1.33;;;7.40;99.90;;;;;;5027029;28;20570;-74
2023/03/26 04:03:05;;;;;;;3.03;1.35;;;7.40;99.90;;;;;;5024234;28;20682;-73
2023/03/26 04:05:31;;;;;;;1.98;1.15;;;7.40;99.90;;;;;;5029445;28;21841;-73
2023/03/26 04:07:58;;;;;;;2.20;1.33;;;7.40;99.90;;;;;;5027285;28;20727;-73
2023/03/26 04:10:24;;;;;;;0.88;0.85;;;7.30;99.90;;;;;;5038223;28;20537;-73
2023/03/26 04:12:50;;;;;;;2.47;1.40;;;7.30;99.90;;;;;;5036736;28;20250;-73
2023/03/26 04:15:16;;;;;;;2.60;1.13;;;7.30;99.90;;;;;;5031506;28;20191;-75
2023/03/26 04:17:41;;;;;;;1.00;1.00;;;7.10;99.90;;;;;;5040365;28;20557;-73
2023/03/26 04:20:14;;;;;;;2.08;1.30;;;7.10;99.90;;;;;;5028676;28;20200;-73
2023/03/26 04:22:41;;;;;;;1.20;1.10;;;7.00;99.90;;;;;;5039452;28;20269;-74
2023/03/26 04:25:08;;;;;;;5.40;1.27;;;6.90;99.90;;;;;;5034695;28;20168;-73
2023/03/26 04:27:35;;;;;;;3.22;1.23;;;6.90;99.90;;;;;;5028819;28;20200;-73
2023/03/26 04:30:02;;;;;;;4.30;1.50;;;6.80;99.90;;;;;;5035144;28;20170;-73
2023/03/26 04:32:32;;;;;;;2.92;1.10;;;6.70;99.90;;;;;;5034792;28;20209;-73
2023/03/26 04:35:05;;;;;;;2.90;1.20;;;6.70;99.90;;;;;;5030161;28;20211;-73
2023/03/26 04:37:38;;;;;;;3.92;1.20;;;6.60;99.90;;;;;;5042379;28;20171;-73
2023/03/26 04:40:09;;;;;;;3.50;1.33;;;6.60;99.90;;;;;;5026413;28;20729;-74
2023/03/26 04:42:40;;;;;;;1.50;1.20;;;6.50;99.90;;;;;;5035241;28;20211;-77
2023/03/26 04:45:10;;;;;;;2.53;1.40;;;6.50;99.90;;;;;;5031707;28;20239;-73
2023/03/26 04:47:35;;;;;;;2.30;1.17;;;6.40;99.90;;;;;;5026735;28;20612;-74
2023/03/26 04:50:05;;;;;;;1.73;1.35;;;6.40;99.90;;;;;;5030418;28;20303;-73
2023/03/26 04:52:31;;;;;;;1.58;1.20;;;6.40;99.90;;;;;;5038044;28;20200;-73
2023/03/26 04:54:57;;;;;;;2.78;1.23;;;6.40;99.90;;;;;;5028393;28;20775;-76
2023/03/26 04:57:37;;;;;;;1.33;1.23;;;6.30;99.90;;;;;;5033126;28;20628;-73
2023/03/26 05:00:17;;;;;;;1.10;1.10;;;6.20;99.90;;;;;;5033871;28;20328;-74
2023/03/26 05:02:44;;;;;;;1.58;1.40;;;6.30;99.90;;;;;;5027570;28;20684;-75
2023/03/26 05:05:10;;;;;;;2.28;1.48;;;6.30;99.90;;;;;;5046999;28;20183;-73
2023/03/26 05:07:36;;;;;;;2.80;1.73;;;6.40;99.90;;;;;;5033343;28;20510;-74
2023/03/26 05:10:03;;;;;;;1.73;1.63;;;6.40;99.90;;;;;;5035956;28;20573;-74
2023/03/26 05:12:29;;;;;;;2.63;1.50;;;6.50;99.90;;;;;;5022153;28;20200;-73
2023/03/26 05:14:54;;;;;;;2.20;1.83;;;6.60;99.90;;;;;;5039232;28;20187;-73
2023/03/26 05:17:23;;;;;;;1.70;1.60;;;6.60;99.90;;;;;;5030352;28;20179;-72
2023/03/26 05:19:50;;;;;;;1.50;1.50;;;6.60;99.90;;;;;;5037153;28;20591;-73
2023/03/26 05:22:16;;;;;;;1.60;1.50;;;6.60;99.90;;;;;;5040575;28;20575;-72
2023/03/26 05:24:42;;;;;;;2.60;2.20;;;6.70;99.90;;;;;;5031906;28;20263;-73
2023/03/26 05:27:12;;;;;;;2.25;1.98;;;6.80;99.90;;;;;;5043492;28;20648;-73
2023/03/26 05:29:37;;;;;;;2.80;1.70;;;6.80;99.90;;;;;;5040262;28;20243;-72
2023/03/26 05:32:03;;;;;;;1.67;1.58;;;6.90;99.90;;;;;;5025682;28;20212;-73
2023/03/26 05:34:28;;;;;;;2.60;1.40;;;6.90;99.90;;;;;;5037862;28;20187;-73
2023/03/26 05:36:54;;;;;;;2.50;2.30;;;7.10;99.90;;;;;;5047573;28;20682;-73
2023/03/26 05:39:24;;;;;;;1.90;1.73;;;7.20;99.90;;;;;;5038889;28;20211;-73
2023/03/26 05:41:51;;;;;;;2.38;1.50;;;7.20;99.90;;;;;;5021885;28;20243;-74
2023/03/26 05:44:17;;;;;;;3.13;1.60;;;7.20;99.90;;;;;;5036822;28;20177;-73
2023/03/26 05:46:42;;;;;;;2.03;1.58;;;7.20;99.90;;;;;;5044573;28;20516;-74
2023/03/26 05:49:08;;;;;;;1.77;1.50;;;7.30;99.90;;;;;;5036635;28;20203;-74
2023/03/26 05:51:34;;;;;;;2.40;1.55;;;7.30;99.90;;;;;;5038098;28;20702;-74
2023/03/26 05:53:59;;;;;;;3.08;1.60;;;7.30;99.90;;;;;;5030017;28;20264;-73
2023/03/26 05:56:25;;;;;;;3.10;1.70;;;7.30;99.90;;;;;;5033150;28;20172;-73
2023/03/26 05:58:50;;;;;;;1.83;1.70;;;7.40;99.90;;;;;;5040362;28;20262;-73
2023/03/26 06:01:17;;;;;;;1.80;1.35;;;7.40;99.90;;;;;;5031789;28;20287;-74
2023/03/26 06:03:44;;;;;;;2.80;1.63;;;7.50;99.90;;;;;;5026498;28;20737;-74
2023/03/26 06:06:14;;;;;;;3.22;1.70;;;7.60;99.90;;;;;;5027140;28;20181;-74
2023/03/26 06:08:50;;;;;;;1.80;1.70;;;7.60;99.90;;;;;;5023166;28;20699;-75
2023/03/26 06:11:18;;;;;;;3.33;1.75;;;7.80;99.90;;;;;;5034300;28;20236;-75
2023/03/26 06:13:44;;;;;;;1.48;1.38;;;7.90;99.90;;;;;;5035350;28;20200;-76
2023/03/26 06:16:11;;;;;;;3.42;1.80;;;8.20;99.90;;;;;;5038384;28;20651;-75
2023/03/26 06:18:38;;;;;;;2.83;1.45;;;8.20;99.90;;;;;;5037742;28;20192;-76
2023/03/26 06:21:04;;;;;;;2.08;1.50;;;8.30;99.90;;;;;;5032290;28;20831;-75
2023/03/26 06:23:31;;;;;;;3.92;1.85;;;8.50;99.90;;;;;;5033057;28;20211;-76
2023/03/26 06:25:57;;;;;;;1.73;1.63;;;8.60;99.90;;;;;;5037303;28;20185;-75
2023/03/26 06:28:23;;;;;;;3.40;1.40;;;8.70;99.90;;;;;;5043288;28;20191;-76
2023/03/26 06:30:50;;;;;;;2.30;1.40;;;8.80;99.90;;;;;;5031920;28;20589;-76
2023/03/26 06:33:15;;;;;;;1.92;1.30;;;8.90;99.90;;;;;;5042105;28;20250;-75
2023/03/26 06:35:42;;;;;;;1.85;1.30;;;9.00;99.90;;;;;;5034737;28;20632;-74
2023/03/26 06:38:08;;;;;;;1.33;1.10;;;9.10;99.90;;;;;;5037997;28;20200;-75
2023/03/26 06:40:34;;;;;;;1.38;1.27;;;9.20;99.90;;;;;;5039359;28;20196;-76
2023/03/26 06:43:00;;;;;;;1.27;1.15;;;9.30;99.90;;;;;;5019645;28;20201;-74
2023/03/26 06:45:26;;;;;;;1.60;1.48;;;9.30;99.90;;;;;;5041303;28;20545;-75
2023/03/26 06:47:52;;;;;;;4.00;1.77;;;9.30;99.90;;;;;;5037205;28;20644;-75
2023/03/26 06:50:18;;;;;;;2.08;1.17;;;9.30;99.90;;;;;;5035578;28;20212;-75
2023/03/26 06:52:43;;;;;;;1.95;1.23;;;9.20;99.90;;;;;;5028106;28;20571;-74
2023/03/26 06:55:09;;;;;;;1.80;1.42;;;9.20;99.90;;;;;;5032096;28;20189;-75
2023/03/26 06:57:36;;;;;;;1.50;1.40;;;9.10;99.90;;;;;;5039606;28;20636;-74
2023/03/26 07:00:02;;;;;;;4.30;1.77;;;9.10;99.90;;;;;;5025393;28;20189;-73
2023/03/26 07:02:28;;;;;;;2.95;1.75;;;9.10;99.90;;;;;;5036688;28;20212;-74
2023/03/26 07:04:54;;;;;;;2.00;1.50;;;9.10;99.90;;;;;;5023072;28;20176;-74
2023/03/26 07:07:20;;;;;;;2.95;1.52;;;9.10;99.90;;;;;;5034635;28;20183;-74
2023/03/26 07:09:47;;;;;;;3.08;1.48;;;9.20;99.90;;;;;;5039537;28;20593;-74
2023/03/26 07:12:13;;;;;;;1.58;1.50;;;9.30;99.90;;;;;;5032071;28;20255;-75
2023/03/26 07:14:39;;;;;;;3.22;1.98;;;9.40;99.90;;;;;;5039000;28;20188;-74
2023/03/26 07:17:04;;;;;;;3.75;1.40;;;9.60;99.90;;;;;;5033506;28;20234;-75
2023/03/26 07:19:30;;;;;;;1.75;1.30;;;9.80;99.90;;;;;;5031539;28;20193;-74
2023/03/26 07:21:56;;;;;;;1.67;1.58;;;10.00;99.90;;;;;;5040124;28;20217;-74
2023/03/26 07:24:22;;;;;;;1.77;1.40;;;10.20;99.90;;;;;;5031212;28;20223;-74
2023/03/26 07:27:28;;;;;;;2.03;1.20;;;10.20;99.90;;;;;;5030430;28;20612;-74
2023/03/26 07:30:05;;;;;;;2.85;1.75;;;10.40;99.90;;;;;;5030511;28;20181;-74
2023/03/26 07:32:44;;;;;;;4.10;1.90;;;10.50;99.90;;;;;;5026858;28;20196;-75
2023/03/26 07:35:36;;;;;;;2.92;1.45;;;10.50;99.90;;;;;;5039376;28;20523;-75
2023/03/26 07:38:20;;;;;;;1.73;1.05;;;10.50;99.90;;;;;;5025785;28;20188;-74
2023/03/26 07:41:10;;;;;;;2.03;1.48;;;10.60;99.90;;;;;;5012073;28;20319;-74
2023/03/26 07:44:08;;;;;;;1.80;1.33;;;10.60;99.90;;;;;;5030557;28;20241;-73
2023/03/26 07:46:35;;;;;;;2.47;1.20;;;10.60;99.90;;;;;;5029726;28;20199;-73
2023/03/26 07:49:03;;;;;;;1.67;1.52;;;10.70;99.90;;;;;;5038953;28;20176;-74
2023/03/26 07:51:29;;;;;;;3.58;1.55;;;10.70;99.90;;;;;;5036903;28;20202;-75
2023/03/26 07:53:57;;;;;;;1.85;1.35;;;10.70;99.90;;;;;;5035720;28;20171;-74
2023/03/26 07:56:34;;;;;;;1.88;1.40;;;10.70;99.90;;;;;;5035951;28;20265;-74
2023/03/26 07:59:11;;;;;;;1.85;1.40;;;10.80;99.90;;;;;;5029797;28;20168;-76
2023/03/26 08:02:14;;;;;;;1.30;1.20;;;10.90;99.90;;;;;;5025526;28;20192;-74
2023/03/26 08:05:09;;;;;;;2.75;1.30;;;11.00;99.90;;;;;;5030720;28;20180;-73
2023/03/26 08:07:34;;;;;;;3.78;1.77;;;11.10;99.90;;;;;;5038328;28;20247;-73
2023/03/26 08:10:18;;;;;;;2.80;2.05;;;11.20;99.90;;;;;;5029313;28;20305;-74
2023/03/26 08:13:03;;;;;;;1.85;1.40;;;11.30;99.90;;;;;;5018375;28;20235;-74
2023/03/26 08:15:38;;;;;;;3.17;1.55;;;11.40;99.90;;;;;;5026479;28;20187;-73
2023/03/26 08:18:18;;;;;;;3.47;1.58;;;11.30;99.90;;;;;;5028881;28;20388;-75
2023/03/26 08:20:56;;;;;;;2.10;1.48;;;11.50;99.90;;;;;;5024925;28;20200;-73
2023/03/26 08:23:26;;;;;;;3.33;1.40;;;11.80;99.90;;;;;;5028549;28;20196;-78
2023/03/26 08:25:58;;;;;;;2.90;1.60;;;12.00;99.90;;;;;;5026671;28;20173;-75
2023/03/26 08:28:44;;;;;;;2.38;1.48;;;12.10;99.90;;;;;;5032714;28;20207;-75
2023/03/26 08:31:12;;;;;;;4.00;2.28;;;12.40;99.90;;;;;;5027808;28;20767;-77
2023/03/26 08:33:39;;;;;;;2.10;1.38;;;12.60;99.90;;;;;;5022171;28;20268;-78
2023/03/26 08:36:06;;;;;;;3.50;1.65;;;12.70;99.90;;;;;;5027929;28;20286;-76
2023/03/26 08:38:32;;;;;;;1.45;1.30;;;12.70;99.90;;;;;;5038941;28;20196;-78
2023/03/26 08:41:09;;;;;;;2.17;1.40;;;12.60;99.90;;;;;;5040686;28;20184;-75
2023/03/26 08:43:53;;;;;;;4.82;2.08;;;12.40;99.90;;;;;;5030516;28;20203;-75
2023/03/26 08:46:44;;;;;;;1.70;1.60;;;12.30;99.90;;;;;;5024360;28;20263;-75
2023/03/26 08:49:41;;;;;;;2.95;1.58;;;12.30;99.90;;;;;;5036274;28;20267;-76
2023/03/26 08:52:34;;;;;;;2.13;1.70;;;12.10;99.90;;;;;;5032735;28;20761;-75
2023/03/26 08:55:21;;;;;;;3.72;1.80;;;11.80;99.90;;;;;;5026472;28;20214;-74
2023/03/26 08:58:27;;;;;;;2.55;1.85;;;11.50;99.90;;;;;;5036009;28;20324;-75
2023/03/26 09:01:17;;;;;;;3.80;2.67;;;11.20;99.90;;;;;;5028567;28;20194;-74
2023/03/26 09:03:49;;;;;;;3.85;2.30;;;11.00;99.90;;;;;;5038192;28;20279;-75
2023/03/26 09:06:33;;;;;;;1.83;1.70;;;10.90;99.90;;;;;;5045699;28;20497;-74
2023/03/26 09:09:20;;;;;;;4.45;2.00;;;11.00;99.90;;;;;;5033571;28;20191;-74
2023/03/26 09:12:14;;;;;;;3.22;2.38;;;11.00;99.90;;;;;;5033937;28;20200;-75
2023/03/26 09:15:02;;;;;;;3.50;2.40;;;11.00;99.90;;;;;;5032008;28;20176;-75
2023/03/26 09:17:43;;;;;;;3.78;2.20;;;11.20;99.90;;;;;;5033051;28;20652;-75
2023/03/26 09:20:47;;;;;;;3.33;1.70;;;11.30;99.90;;;;;;5034031;28;20204;-77
2023/03/26 09:23:45;;;;;;;5.97;2.30;;;11.40;99.90;;;;;;5046633;28;20202;-75
2023/03/26 09:26:20;;;;;;;2.33;1.83;;;11.30;99.90;;;;;;5042288;28;20275;-79
2023/03/26 09:29:00;;;;;;;2.42;1.65;;;11.20;99.90;;;;;;5029087;28;20341;-75
2023/03/26 09:31:56;;;;;;;2.97;2.15;;;11.10;99.90;;;;;;5032863;28;20288;-75
2023/03/26 09:34:57;;;;;;;2.53;2.10;;;10.90;99.90;;;;;;5041741;28;20190;-77
2023/03/26 09:37:35;;;;;;;3.10;1.88;;;10.90;99.90;;;;;;5026169;28;20647;-76
2023/03/26 09:40:18;;;;;;;3.33;1.90;;;10.90;99.90;;;;;;5037255;28;20177;-74
2023/03/26 09:42:48;;;;;;;2.78;2.13;;;10.80;99.90;;;;;;5035603;28;20243;-75
2023/03/26 09:45:34;;;;;;;2.90;2.22;;;10.80;99.90;;;;;;5027945;28;20185;-75
2023/03/26 09:48:36;;;;;;;2.67;2.17;;;10.80;99.90;;;;;;5030667;28;20187;-75
2023/03/26 09:51:28;;;;;;;4.38;2.25;;;10.70;99.90;;;;;;5026579;28;21896;-77
2023/03/26 09:54:31;;;;;;;5.38;2.17;;;10.70;99.90;;;;;;5030765;28;20179;-77
2023/03/26 09:57:26;;;;;;;3.80;2.20;;;10.70;99.90;;;;;;5041139;28;20574;-75
2023/03/26 10:00:00;;;;;;;2.60;2.05;;;10.70;99.90;;;;;;5033170;28;20636;-77
2023/03/26 10:02:49;;;;;;;3.42;2.33;;;10.80;99.90;;;;;;5024962;28;20220;-76
2023/03/26 10:05:26;;;;;;;3.50;2.10;;;10.70;99.90;;;;;;5049356;28;20422;-76
2023/03/26 10:08:16;;;;;;;4.45;2.47;;;10.80;99.90;;;;;;5029340;28;20226;-76
2023/03/26 10:11:01;;;;;;;5.30;2.95;;;10.80;99.90;;;;;;5036667;28;20184;-76
2023/03/26 10:13:38;;;;;;;5.65;1.80;;;10.80;99.90;;;;;;5034637;28;20186;-75
2023/03/26 10:16:10;;;;;;;8.23;3.70;;;10.80;99.90;;;;;;5037322;28;20262;-75
2023/03/26 10:19:06;;;;;;;3.95;2.63;;;10.70;99.90;;;;;;5043531;28;20226;-76
2023/03/26 10:22:01;;;;;;;5.70;2.60;;;10.70;99.90;;;;;;5035815;28;20307;-75
2023/03/26 10:24:54;;;;;;;3.10;1.65;;;10.60;99.90;;;;;;5040044;28;20281;-77
2023/03/26 10:27:38;;;;;;;4.35;2.30;;;10.50;99.90;;;;;;5033338;28;20184;-76
2023/03/26 10:30:13;;;;;;;5.72;2.95;;;10.60;99.90;;;;;;5037650;28;20543;-75
2023/03/26 10:33:09;;;;;;;37.63;21.85;;;10.50;99.90;;;;;;5042396;28;20203;-75
2023/03/26 10:36:06;;;;;;;3.50;2.38;;;10.40;99.90;;;;;;5030555;28;20176;-75
2023/03/26 10:38:45;;;;;;;11.73;5.47;;;10.30;99.90;;;;;;5031223;28;20230;-75
2023/03/26 10:41:50;;;;;;;4.93;2.45;;;10.20;99.90;;;;;;5030152;28;20282;-75
2023/03/26 10:44:35;;;;;;;4.97;2.03;;;10.10;99.90;;;;;;5034790;28;20208;-75
2023/03/26 10:47:52;;;;;;;2.63;1.92;;;9.70;99.90;;;;;;5030042;28;20185;-76
2023/03/26 10:50:41;;;;;;;4.78;2.40;;;9.50;99.90;;;;;;5027416;28;20291;-76
2023/03/26 10:53:21;;;;;;;5.80;2.33;;;9.40;99.90;;;;;;5040237;28;20197;-75
2023/03/26 10:55:53;;;;;;;5.03;2.35;;;9.10;99.90;;;;;;5020084;28;20184;-75
2023/03/26 10:58:28;;;;;;;2.40;2.08;;;8.90;99.90;;;;;;5036599;28;20729;-77
2023/03/26 11:01:04;;;;;;;6.15;2.33;;;8.80;99.90;;;;;;5030360;28;20567;-75
2023/03/26 11:03:54;;;;;;;6.45;3.38;;;8.60;99.90;;;;;;5032262;28;20188;-75
2023/03/26 11:06:30;;;;;;;3.65;3.10;;;8.50;99.90;;;;;;5036085;28;20723;-75
2023/03/26 11:09:12;;;;;;;13.20;5.40;;;8.50;99.90;;;;;;5027762;28;20263;-75
2023/03/26 11:11:55;;;;;;;12.98;7.90;;;8.60;99.90;;;;;;5039698;28;20219;-75
2023/03/26 11:14:38;;;;;;;6.57;3.80;;;8.60;99.90;;;;;;5025068;28;20180;-75
2023/03/26 11:17:19;;;;;;;8.95;4.85;;;8.70;99.90;;;;;;5042578;28;20180;-74
2023/03/26 11:19:56;;;;;;;8.10;4.72;;;8.80;99.90;;;;;;5044313;28;20188;-74
2023/03/26 11:22:30;;;;;;;2.58;2.42;;;8.80;99.90;;;;;;5023111;28;20317;-76
2023/03/26 11:25:33;;;;;;;5.30;2.40;;;8.70;99.90;;;;;;5025767;28;20173;-76
2023/03/26 11:28:45;;;;;;;5.57;2.00;;;8.80;99.90;;;;;;5036343;28;20179;-75
2023/03/26 11:31:37;;;;;;;4.85;2.35;;;8.70;99.90;;;;;;5032258;28;20197;-75
2023/03/26 11:34:10;;;;;;;2.97;2.08;;;8.70;99.90;;;;;;5031359;28;20896;-74
2023/03/26 11:36:41;;;;;;;2.58;2.13;;;8.70;99.90;;;;;;5042811;28;20181;-75
2023/03/26 11:39:12;;;;;;;3.55;2.30;;;8.70;99.90;;;;;;5031310;28;20187;-76
2023/03/26 11:41:38;;;;;;;3.58;1.75;;;8.60;99.90;;;;;;5018328;28;20212;-76
2023/03/26 11:44:25;;;;;;;4.60;2.08;;;8.60;99.90;;;;;;5012471;28;20189;-76
2023/03/26 11:46:57;;;;;;;3.75;1.88;;;8.40;99.90;;;;;;5010188;28;20237;-76
2023/03/26 11:49:25;;;;;;;6.20;2.13;;;8.50;99.90;;;;;;5014414;28;20180;-76
2023/03/26 11:51:51;;;;;;;2.95;1.80;;;8.50;99.90;;;;;;5008350;28;20197;-75
2023/03/26 11:54:16;;;;;;;4.40;2.38;;;8.70;99.90;;;;;;5010348;28;20545;-75
2023/03/26 11:56:52;;;;;;;3.35;1.85;;;8.70;99.90;;;;;;5014527;28;20700;-75
2023/03/26 11:59:40;;;;;;;3.08;2.53;;;8.70;99.90;;;;;;5036585;28;20196;-76
2023/03/26 12:02:08;;;;;;;3.63;2.10;;;8.80;99.90;;;;;;5029155;28;20218;-76
2023/03/26 12:04:39;;;;;;;4.80;2.10;;;9.20;99.90;;;;;;5039317;28;20263;-76
2023/03/26 12:07:31;;;;;;;5.68;2.28;;;9.20;99.90;;;;;;5009643;28;20713;-76
2023/03/26 12:09:59;;;;;;;2.30;1.50;;;9.20;99.90;;;;;;5012592;28;20621;-76
2023/03/26 12:12:36;;;;;;;4.22;2.72;;;9.20;99.90;;;;;;5020516;28;20223;-77
2023/03/26 12:15:02;;;;;;;4.85;2.03;;;9.10;99.90;;;;;;5010761;28;20189;-76
2023/03/26 12:17:34;;;;;;;2.72;2.50;;;9.30;99.90;;;;;;5023677;28;20192;-76
2023/03/26 12:20:01;;;;;;;3.00;1.75;;;9.60;99.90;;;;;;5026118;28;20200;-76
2023/03/26 12:22:38;;;;;;;4.68;2.20;;;9.90;99.90;;;;;;5021594;28;20209;-76
2023/03/26 12:25:15;;;;;;;2.45;1.73;;;10.40;99.90;;;;;;5014225;28;20979;-77
2023/03/26 12:28:04;;;;;;;4.22;1.52;;;11.10;99.90;;;;;;5014432;28;20185;-76
2023/03/26 12:30:32;;;;;;;3.20;2.00;;;11.80;99.90;;;;;;5016188;28;20268;-76
2023/03/26 12:33:05;;;;;;;3.47;2.08;;;12.20;99.90;;;;;;5025912;28;20243;-78
2023/03/26 12:35:33;;;;;;;3.83;2.08;;;12.40;99.90;;;;;;5017870;28;20767;-77
2023/03/26 12:38:32;;;;;;;3.47;2.28;;;12.60;99.90;;;;;;5014856;28;20321;-77
2023/03/26 12:41:04;;;;;;;2.55;1.70;;;13.20;99.90;;;;;;5003842;28;20199;-77
2023/03/26 12:43:44;;;;;;;5.53;2.47;;;13.60;99.90;;;;;;5012777;28;20209;-77
2023/03/26 12:46:30;;;;;;;1.70;1.25;;;15.30;99.90;;;;;;5016754;28;20206;-77
2023/03/26 12:48:58;;;;;;;1.77;1.67;;;15.60;99.90;;;;;;5014301;28;20186;-78
2023/03/26 12:51:46;;;;;;;2.28;1.52;;;15.40;99.90;;;;;;5017789;28;20205;-78
2023/03/26 12:54:27;;;;;;;3.15;1.55;;;14.80;99.90;;;;;;5022047;28;20795;-78
2023/03/26 12:57:37;;;;;;;2.20;1.70;;;14.50;99.90;;;;;;5016598;28;20659;-78
2023/03/26 13:00:22;;;;;;;3.80;1.77;;;14.80;99.90;;;;;;5013536;28;20687;-80
2023/03/26 13:03:18;;;;;;;1.88;1.58;;;14.90;99.90;;;;;;5017671;28;20216;-78
2023/03/26 13:06:10;;;;;;;3.53;1.42;;;15.30;99.90;;;;;;5017381;28;20192;-78
2023/03/26 13:09:09;;;;;;;1.52;1.42;;;15.40;99.90;;;;;;5014507;28;20188;-78
2023/03/26 13:11:57;;;;;;;1.75;1.65;;;15.00;99.90;;;;;;5016123;28;20217;-79
2023/03/26 13:14:37;;;;;;;4.18;1.95;;;14.80;99.90;;;;;;5017958;28;20242;-79
2023/03/26 13:17:11;;;;;;;3.00;1.58;;;14.50;99.90;;;;;;5014434;28;20386;-80
2023/03/26 13:20:11;;;;;;;2.22;1.70;;;14.60;99.90;;;;;;5022110;28;20699;-79
2023/03/26 13:23:21;;;;;;;3.22;1.67;;;14.60;99.90;;;;;;5016876;28;20241;-79
2023/03/26 13:25:54;;;;;;;3.10;1.90;;;14.60;99.90;;;;;;5015598;28;20280;-80
2023/03/26 13:28:33;;;;;;;2.90;1.70;;;14.90;99.90;;;;;;5024230;28;20181;-79
2023/03/26 13:31:18;;;;;;;2.55;1.40;;;15.00;99.90;;;;;;5016360;28;20185;-78